Flight Track Log - Related Links

Times and Time Zones

All times are in EDT time to prevent confusion due to time zone crossing. See the FIV617 flight status page for this flight to view local times or setup timezone preferences in your user account.

Time Position Orientation Groundspeed Altitude Reporting Facility
EDT Latitude Longitude Course Direction KTS MPH feet Rate Location/Type
Fri 05:31:55 PM 36.0747 -115.1714 206° Southwest 161 185 2,900  Level Los Angeles Center
Fri 05:33:02 PM 36.0175 -115.2061 206° Southwest 214 246 5,700 2,227 Climbing Los Angeles Center
Fri 05:34:07 PM 35.9706 -115.2797 232° Southwest 266 306 7,800 2,409 Climbing Los Angeles Center
Fri 05:35:09 PM 35.8950 -115.2714 175° South 277 319 10,800 3,024 Climbing Los Angeles Center
Fri 05:36:10 PM 35.8461 -115.1828 124° Southeast 316 364 14,000 2,902 Climbing Los Angeles Center
Fri 05:37:11 PM 35.8236 -115.0708 104° East 341 392 16,700 2,400 Climbing Los Angeles Center
Fri 05:38:15 PM 35.8319 -114.9558 85° East 357 411 19,000 2,362 Climbing Los Angeles Center
Fri 05:39:18 PM 35.8450 -114.8047 84° East 372 428 21,700 2,400 Climbing Los Angeles Center
Fri 05:40:20 PM 35.8567 -114.6714 84° East 390 449 24,000 1,984 Climbing Los Angeles Center
Fri 05:41:22 PM 35.8686 -114.5308 84° East 410 472 25,800 1,839 Climbing Los Angeles Center
Fri 05:42:24 PM 35.8822 -114.3842 83° East 429 494 27,800 1,790 Climbing Los Angeles Center
Fri 05:43:26 PM 35.8742 -114.2344 94° East 438 504 29,500 1,210 Climbing Los Angeles Center
Fri 05:44:28 PM 35.8544 -114.0803 99° East 453 521 30,300 774 Climbing Los Angeles Center
Fri 05:45:30 PM 35.8303 -113.8833 99° East 482 555 31,100 774 Climbing Los Angeles Center
Fri 05:46:32 PM 35.8086 -113.7119 99° East 502 578 31,900 677 Climbing Los Angeles Center
Fri 05:47:34 PM 35.7883 -113.5533 99° East 508 585 32,500 768 Climbing Los Angeles Center
Fri 05:48:37 PM 35.7664 -113.3800 99° East 513 590 33,500 1,056 Climbing Los Angeles Center
Fri 05:49:39 PM 35.7389 -113.1714 99° East 515 593 34,700 1,065 Climbing Los Angeles Center
Fri 05:50:41 PM 35.7153 -112.9978 99° East 513 590 35,700 968 Climbing Los Angeles Center
Fri 05:51:43 PM 35.6928 -112.8242 99° East 511 588 36,700 1,016 Climbing Los Angeles Center
Fri 05:52:45 PM 35.6675 -112.6378 99° East 504 580 37,800 968 Climbing Los Angeles Center
Fri 05:53:47 PM 35.6458 -112.4864 100° East 499 574 38,700 919 Climbing Los Angeles Center
Fri 05:54:49 PM 35.6222 -112.3236 100° East 488 562 39,700 1,065 Climbing Los Angeles Center
Fri 05:55:51 PM 35.5953 -112.1308 100° East 479 551 40,900 629 Climbing Los Angeles Center
Fri 05:56:53 PM 35.5733 -111.9725 100° East 472 543 41,000 48 Climbing Los Angeles Center
Fri 05:57:55 PM 35.5500 -111.8097 100° East 484 557 41,000  Level Los Angeles Center
Fri 05:58:58 PM 35.5258 -111.6453 100° East 488 562 41,000  Level Albuquerque Center
Fri 06:00:00 PM 35.5008 -111.4781 100° East 497 572 41,000  Level Albuquerque Center
Fri 06:01:02 PM 35.4714 -111.2814 100° East 501 577 41,000  Level Albuquerque Center
Fri 06:02:04 PM 35.4486 -111.1217 100° East 499 574 41,000  Level Albuquerque Center
Fri 06:03:06 PM 35.4194 -110.9369 101° East 496 571 41,000  Level Albuquerque Center
Fri 06:04:08 PM 35.3958 -110.7767 100° East 499 574 41,000  Level Albuquerque Center
Fri 06:05:10 PM 35.3672 -110.5911 101° East 498 573 41,000  Level Albuquerque Center
Fri 06:06:12 PM 35.3417 -110.4322 101° East 498 573 41,000  Level Albuquerque Center
Fri 06:07:14 PM 35.3131 -110.2467 101° East 498 573 41,000  Level Albuquerque Center
Fri 06:08:16 PM 35.2878 -110.0894 101° East 495 570 41,000  Level Albuquerque Center
Fri 06:09:18 PM 35.2597 -109.9044 100° East 496 571 41,000  Level Albuquerque Center
Fri 06:10:20 PM 35.2347 -109.7464 101° East 496 571 41,000  Level Albuquerque Center
Fri 06:11:22 PM 35.2036 -109.5608 102° East 499 574 41,000  Level Albuquerque Center
Fri 06:12:24 PM 35.1783 -109.4036 101° East 497 572 41,000  Level Albuquerque Center
Fri 06:13:26 PM 35.1528 -109.2469 101° East 494 568 41,000  Level Albuquerque Center
Fri 06:14:28 PM 35.1219 -109.0614 101° East 498 573 41,000  Level Albuquerque Center
Fri 06:15:30 PM 35.0944 -108.9047 102° East 497 572 41,000  Level Albuquerque Center
Fri 06:16:31 PM 35.0647 -108.7208 101° East 496 571 41,000  Level Albuquerque Center
Fri 06:17:33 PM 35.0372 -108.5650 102° East 494 568 41,000  Level Albuquerque Center
Fri 06:18:35 PM 35.0056 -108.3833 102° East 492 566 41,000  Level Albuquerque Center
Fri 06:19:37 PM 34.9786 -108.2267 102° East 493 567 41,000  Level Albuquerque Center
Fri 06:20:39 PM 34.9453 -108.0450 103° East 494 568 41,000  Level Albuquerque Center
Fri 06:21:41 PM 34.9183 -107.8886 102° East 493 567 41,000  Level Albuquerque Center
Fri 06:22:43 PM 34.8906 -107.7367 103° East 494 568 41,000  Level Albuquerque Center
Fri 06:23:45 PM 34.8553 -107.5431 102° East 491 565 41,000  Level Albuquerque Center
Fri 06:24:47 PM 34.8253 -107.3806 103° East 493 567 41,000  Level Albuquerque Center
Fri 06:25:49 PM 34.7944 -107.2181 103° East 496 571 41,000  Level Albuquerque Center
Fri 06:26:51 PM 34.7636 -107.0569 103° East 496 571 41,000  Level Albuquerque Center
Fri 06:27:52 PM 34.7331 -106.8936 103° East 500 575 41,000  Level Albuquerque Center
Fri 06:28:54 PM 34.6958 -106.6986 103° East 502 578 41,000  Level Albuquerque Center
Fri 06:29:56 PM 34.6647 -106.5361 103° East 499 574 41,000  Level Albuquerque Center
Fri 06:30:58 PM 34.6342 -106.3742 103° East 497 572 41,000  Level Albuquerque Center
Fri 06:32:00 PM 34.5986 -106.1975 104° East 498 573 41,000  Level Albuquerque Center
Fri 06:33:02 PM 34.5678 -106.0331 103° East 498 573 41,000  Level Albuquerque Center
Fri 06:34:04 PM 34.5347 -105.8700 104° East 495 570 41,000  Level Albuquerque Center
Fri 06:35:05 PM 34.5036 -105.7061 103° East 496 571 41,000  Level Albuquerque Center
Fri 06:36:07 PM 34.4700 -105.5419 104° East 497 572 41,000  Level Albuquerque Center
Fri 06:37:09 PM 34.4325 -105.3500 103° East 499 574 41,000  Level Albuquerque Center
Fri 06:38:11 PM 34.3997 -105.1875 104° East 496 571 41,000  Level Albuquerque Center
Fri 06:39:13 PM 34.3658 -105.0244 104° East 496 571 41,000  Level Albuquerque Center
Fri 06:40:15 PM 34.3339 -104.8631 103° East 494 568 41,000  Level Albuquerque Center
Fri 06:41:17 PM 34.3000 -104.7017 104° East 492 566 41,000  Level Albuquerque Center
Fri 06:42:19 PM 34.2658 -104.5406 104° East 493 567 41,000  Level Albuquerque Center
Fri 06:43:20 PM 34.2325 -104.3803 104° East 491 565 41,000  Level Albuquerque Center
Fri 06:44:22 PM 34.1936 -104.1900 104° East 495 570 41,000  Level Albuquerque Center
Fri 06:45:24 PM 34.1592 -104.0281 104° East 496 571 41,000  Level Albuquerque Center
Fri 06:46:26 PM 34.1247 -103.8681 105° East 494 568 41,000 -726 Level Albuquerque Center
Fri 06:47:28 PM 34.0906 -103.7069 104° East 493 567 39,500 -2,129 Descending Albuquerque Center
Fri 06:48:30 PM 34.0569 -103.5519 105° East 491 565 36,600 -2,855 Descending Albuquerque Center
Fri 06:49:32 PM 34.0219 -103.3906 105° East 486 559 33,600 -2,927 Descending Albuquerque Center
Fri 06:50:33 PM 33.9875 -103.2400 105° East 482 555 30,600 -2,927 Descending Albuquerque Center
Fri 06:51:35 PM 33.9531 -103.0844 105° East 481 554 27,600 -3,387 Descending Albuquerque Center
Fri 06:52:37 PM 33.9108 -102.8972 105° East 483 556 23,600 -3,726 Descending Albuquerque Center
Fri 06:53:39 PM 33.8781 -102.7525 105° East 463 533 19,900 -3,268 Descending Albuquerque Center
Fri 06:54:40 PM 33.8550 -102.6172 102° East 430 495 16,900 -2,927 Descending Albuquerque Center
Fri 06:55:42 PM 33.8325 -102.4892 102° East 400 460 13,900 -2,390 Descending Albuquerque Center
Fri 06:56:43 PM 33.7975 -102.3697 109° East 362 417 12,000 -1,736 Descending Fort Worth Center
Fri 06:57:43 PM 33.7678 -102.2756 111° Southeast 341 392 10,400 -1,550 Descending Fort Worth Center
Fri 06:58:43 PM 33.7428 -102.1692 106° East 311 358 8,900 -1,450 Descending Fort Worth Center
Fri 06:59:43 PM 33.7289 -102.0936 102° East 269 310 7,500 -1,550 Descending Fort Worth Center
Fri 07:00:43 PM 33.7283 -101.9961 90° East 264 304 5,800 -1,250 Descending Fort Worth Center
Fri 07:01:43 PM 33.7289 -101.9214 89° East 248 285 5,000 -750 Descending Fort Worth Center
Fri 07:02:43 PM 33.7397 -101.8569 79° East 214 246 4,300 -600 Descending Fort Worth Center
Fri 07:03:43 PM 33.7114 -101.8306 142° Southeast 118 136 3,800 -450 Descending Fort Worth Center
Fri 07:04:43 PM 33.6842 -101.8317 182° South 98 113 3,400 -300 Descending Fort Worth Center
Fri 07:05:43 PM 33.6656 -101.8306 177° South 85 98 3,200 -100 Descending Fort Worth Center
Fri 07:06:43 PM 33.6444 -101.8347 189° South 67 77 3,200  Level Fort Worth Center
Fri 07:09:00 PM 33.6500 -101.8167 121° Southeast  Level FlightAware Approximate
Fri 07:16:00 PM 33.6637 -101.8206 121° Southeast  Level Estimated
Fri 07:17:00 PM 33.6637 -101.8206 121° Southeast  Level Estimated
Fri 07:18:00 PM 33.6637 -101.8206 121° Southeast  Level Estimated
Fri 07:19:00 PM 33.6637 -101.8206 121° Southeast  Level Estimated
Fri 07:20:00 PM 33.6637 -101.8206 121° Southeast  Level Estimated
Fri 07:21:00 PM 33.6637 -101.8206 121° Southeast  Level Estimated

Login

Don't have an account? Register now (free) for customized features, flight alerts, and more!